createdAt,value
2022-12-15T00:02:19.748Z,71.20
2022-12-15T00:05:05.267Z,71.04
2022-12-15T00:07:50.595Z,70.87
2022-12-15T00:10:35.901Z,70.78
2022-12-15T00:13:21.091Z,70.64
2022-12-15T00:16:06.542Z,70.94
2022-12-15T00:18:53.247Z,70.64
2022-12-15T00:21:38.688Z,71.07
2022-12-15T00:24:24.466Z,70.98
2022-12-15T00:27:09.851Z,71.04
2022-12-15T00:29:55.349Z,70.98
2022-12-15T00:32:41.030Z,71.14
2022-12-15T00:35:27.422Z,70.65
2022-12-15T00:38:12.644Z,70.74
2022-12-15T00:40:40.369Z,70.98
2022-12-15T00:43:11.803Z,70.58
2022-12-15T00:45:56.865Z,70.29
2022-12-15T00:48:24.402Z,70.54
2022-12-15T00:50:52.339Z,70.02
2022-12-15T00:53:38.151Z,70.23
2022-12-15T00:56:23.642Z,70.48
2022-12-15T00:59:09.137Z,70.36
2022-12-15T01:01:54.541Z,70.42
2022-12-15T01:04:39.956Z,70.38
2022-12-15T01:07:26.721Z,70.84
2022-12-15T01:10:12.058Z,71.25
2022-12-15T01:12:57.427Z,70.97
2022-12-15T01:15:42.841Z,70.55
2022-12-15T01:18:28.196Z,70.29
2022-12-15T01:20:56.646Z,70.73
2022-12-15T01:23:25.822Z,70.79
2022-12-15T01:25:54.434Z,70.54
2022-12-15T01:28:22.856Z,71.29
2022-12-15T01:30:50.553Z,71.05
2022-12-15T01:33:19.570Z,70.92
2022-12-15T01:35:56.435Z,70.86
2022-12-15T01:38:25.480Z,70.79
2022-12-15T01:40:54.337Z,71.15
2022-12-15T01:43:24.391Z,70.59
2022-12-15T01:46:02.457Z,69.90
2022-12-15T01:48:35.887Z,70.06
2022-12-15T01:51:10.360Z,69.82
2022-12-15T01:53:44.889Z,69.58
2022-12-15T01:56:13.248Z,69.56
2022-12-15T01:58:44.398Z,70.06
2022-12-15T02:01:12.349Z,70.07
2022-12-15T02:03:40.810Z,70.02
2022-12-15T02:06:09.673Z,70.17
2022-12-15T02:08:38.494Z,70.08
2022-12-15T02:11:22.765Z,70.12
2022-12-15T02:13:58.292Z,70.91
2022-12-15T02:16:35.585Z,70.90
2022-12-15T02:19:14.123Z,70.02
2022-12-15T02:21:47.756Z,69.84
2022-12-15T02:24:36.947Z,70.33
2022-12-15T02:27:20.543Z,70.14
2022-12-15T02:30:18.214Z,70.27
2022-12-15T02:32:54.222Z,69.31
2022-12-15T02:35:27.057Z,69.30
2022-12-15T02:37:54.437Z,69.44
2022-12-15T02:40:22.216Z,69.65
2022-12-15T02:42:55.093Z,69.46
2022-12-15T02:45:26.918Z,69.88
2022-12-15T02:49:19.213Z,69.74
2022-12-15T02:52:01.329Z,69.72
2022-12-15T02:54:42.930Z,69.43
2022-12-15T02:57:18.989Z,69.60
2022-12-15T02:59:55.461Z,69.51
2022-12-15T03:02:26.226Z,69.38
2022-12-15T03:04:56.159Z,69.09
2022-12-15T03:07:24.443Z,69.23
2022-12-15T03:09:53.002Z,68.88
2022-12-15T03:12:20.556Z,69.04
2022-12-15T03:14:48.117Z,69.33
2022-12-15T03:17:15.666Z,68.99
2022-12-15T03:19:43.201Z,69.12
2022-12-15T03:22:12.472Z,68.64
2022-12-15T03:24:40.111Z,68.91
2022-12-15T03:27:07.618Z,69.04
2022-12-15T03:29:35.240Z,68.67
2022-12-15T03:32:02.859Z,68.64
2022-12-15T03:34:30.536Z,69.33
2022-12-15T03:36:59.172Z,69.42
2022-12-15T03:39:28.176Z,69.59
2022-12-15T03:41:55.750Z,69.85
2022-12-15T03:44:23.309Z,69.28
2022-12-15T03:46:51.015Z,69.07
2022-12-15T03:49:18.542Z,69.13
2022-12-15T03:51:46.200Z,69.63
2022-12-15T03:54:13.930Z,69.61
2022-12-15T03:56:42.808Z,69.87
2022-12-15T03:59:10.318Z,69.75
2022-12-15T04:01:38.540Z,68.86
2022-12-15T04:04:06.487Z,69.43
2022-12-15T04:06:34.122Z,70.14
2022-12-15T04:09:01.686Z,70.65
2022-12-15T04:11:29.240Z,70.44
2022-12-15T04:13:58.162Z,70.76
2022-12-15T04:16:25.729Z,70.31
2022-12-15T04:19:13.280Z,69.88
2022-12-15T04:21:39.898Z,69.77
2022-12-15T04:24:25.373Z,69.61
2022-12-15T04:27:10.567Z,70.15
2022-12-15T04:29:57.218Z,70.31
2022-12-15T04:32:42.632Z,70.07
2022-12-15T04:35:28.756Z,69.81
2022-12-15T04:38:14.130Z,69.99
2022-12-15T04:40:59.394Z,69.34
2022-12-15T04:43:44.736Z,69.40
2022-12-15T04:46:31.412Z,69.26
2022-12-15T04:49:16.662Z,69.52
2022-12-15T04:52:02.182Z,69.89
2022-12-15T04:54:47.475Z,69.61
2022-12-15T04:57:32.809Z,69.38
2022-12-15T05:00:18.286Z,69.59
2022-12-15T05:03:04.961Z,69.70
2022-12-15T05:05:50.043Z,69.50
2022-12-15T05:08:35.441Z,70.00
2022-12-15T05:11:20.469Z,70.21
2022-12-15T05:14:05.865Z,70.17
2022-12-15T05:16:51.234Z,70.12
2022-12-15T05:19:37.813Z,70.25
2022-12-15T05:22:23.021Z,69.89
2022-12-15T05:25:08.375Z,69.84
2022-12-15T05:27:53.685Z,70.55
2022-12-15T05:30:39.029Z,70.38
2022-12-15T05:33:06.574Z,70.38
2022-12-15T05:35:35.465Z,70.67
2022-12-15T05:38:03.068Z,70.55
2022-12-15T05:40:30.613Z,70.50
2022-12-15T05:42:58.954Z,70.23
2022-12-15T05:45:26.784Z,69.73
2022-12-15T05:47:54.898Z,70.19
2022-12-15T05:50:23.452Z,69.85
2022-12-15T05:52:52.376Z,69.39
2022-12-15T05:55:20.247Z,69.87
2022-12-15T05:57:52.516Z,70.75
2022-12-15T06:00:20.607Z,70.50
2022-12-15T06:02:48.255Z,70.63
2022-12-15T06:05:18.145Z,70.49
2022-12-15T06:07:45.748Z,71.01
2022-12-15T06:10:14.947Z,71.98
2022-12-15T06:12:42.511Z,71.75
2022-12-15T06:15:10.915Z,71.58
2022-12-15T06:17:38.523Z,71.41
2022-12-15T06:20:07.183Z,71.21
2022-12-15T06:22:34.706Z,70.70
2022-12-15T06:25:02.269Z,70.08
2022-12-15T06:27:31.190Z,70.24
2022-12-15T06:29:58.742Z,70.84
2022-12-15T06:32:26.320Z,70.71
2022-12-15T06:34:53.858Z,70.94
2022-12-15T06:37:21.388Z,70.55
2022-12-15T06:39:48.938Z,70.09
2022-12-15T06:42:16.527Z,69.67
2022-12-15T06:44:45.376Z,69.40
2022-12-15T06:47:12.985Z,69.68
2022-12-15T06:49:40.589Z,69.50
2022-12-15T06:52:09.064Z,69.24
2022-12-15T06:54:36.582Z,69.01
2022-12-15T06:57:04.357Z,68.70
2022-12-15T06:59:31.903Z,68.64
2022-12-15T07:02:01.313Z,68.42
2022-12-15T07:04:29.070Z,68.94
2022-12-15T07:06:56.893Z,68.62
2022-12-15T07:09:26.097Z,69.46
2022-12-15T07:11:54.289Z,69.48
2022-12-15T07:14:23.070Z,68.98
2022-12-15T07:16:50.590Z,69.62
2022-12-15T07:19:19.503Z,69.41
2022-12-15T07:21:47.220Z,69.61
2022-12-15T07:24:15.130Z,69.59
2022-12-15T07:26:43.151Z,69.70
2022-12-15T07:29:11.798Z,69.86
2022-12-15T07:31:39.756Z,69.85
2022-12-15T07:34:07.401Z,69.37
2022-12-15T07:36:36.341Z,69.71
2022-12-15T07:39:05.318Z,69.66
2022-12-15T07:41:33.510Z,70.18
2022-12-15T07:44:02.280Z,69.99
2022-12-15T07:46:30.250Z,69.90
2022-12-15T07:48:57.908Z,69.90
2022-12-15T07:51:25.442Z,69.35
2022-12-15T07:53:54.315Z,69.50
2022-12-15T07:56:21.938Z,69.05
2022-12-15T07:58:50.075Z,68.79
2022-12-15T08:01:18.090Z,68.49
2022-12-15T08:03:45.972Z,68.43
2022-12-15T08:06:15.661Z,68.65
2022-12-15T08:08:50.370Z,68.55
2022-12-15T08:11:22.041Z,68.68
2022-12-15T08:14:10.527Z,68.16
2022-12-15T08:16:38.517Z,68.02
2022-12-15T08:19:08.026Z,67.67
2022-12-15T08:21:35.820Z,67.65
2022-12-15T08:24:04.105Z,67.73
2022-12-15T08:26:32.959Z,68.16
2022-12-15T08:29:32.010Z,67.67
2022-12-15T08:31:51.470Z,67.95
2022-12-15T08:34:19.160Z,68.70
2022-12-15T08:36:46.685Z,68.87
2022-12-15T08:39:14.194Z,68.21
2022-12-15T08:41:43.237Z,67.99
2022-12-15T08:44:10.817Z,68.19
2022-12-15T08:46:38.393Z,68.01
2022-12-15T08:49:06.155Z,68.09
2022-12-15T08:51:34.419Z,68.04
2022-12-15T08:54:02.306Z,67.76
2022-12-15T08:56:30.223Z,68.08
2022-12-15T08:59:00.788Z,67.73
2022-12-15T09:01:31.393Z,67.34
2022-12-15T09:03:59.451Z,67.31
2022-12-15T09:06:30.140Z,67.24
2022-12-15T09:08:58.983Z,67.54
2022-12-15T09:11:27.767Z,67.59
2022-12-15T09:13:55.648Z,67.58
2022-12-15T09:16:25.448Z,67.54
2022-12-15T09:18:54.959Z,67.58
2022-12-15T09:21:25.073Z,67.86
2022-12-15T09:23:54.325Z,67.96
2022-12-15T09:26:23.510Z,67.99
2022-12-15T09:28:51.899Z,67.98
2022-12-15T09:31:22.213Z,67.55
2022-12-15T09:33:53.881Z,67.81
2022-12-15T09:36:22.341Z,68.15
2022-12-15T09:38:50.313Z,68.47
2022-12-15T09:41:23.537Z,67.86
2022-12-15T09:43:56.726Z,68.17
2022-12-15T09:46:32.041Z,68.28
2022-12-15T09:49:05.492Z,68.00
2022-12-15T09:51:40.228Z,67.61
2022-12-15T09:54:11.079Z,67.51
2022-12-15T09:56:43.945Z,67.54
2022-12-15T09:59:34.015Z,67.35
2022-12-15T10:02:18.632Z,68.00
2022-12-15T10:04:55.677Z,67.22
2022-12-15T10:07:29.753Z,67.19
2022-12-15T10:09:57.630Z,67.41
2022-12-15T10:12:29.764Z,67.14
2022-12-15T10:15:13.477Z,67.45
2022-12-15T10:17:50.181Z,67.40
2022-12-15T10:20:21.449Z,68.00
2022-12-15T10:22:50.426Z,67.31
2022-12-15T10:25:27.591Z,67.67
2022-12-15T10:28:17.027Z,66.97
2022-12-15T10:30:53.124Z,66.95
2022-12-15T10:33:24.135Z,67.09
2022-12-15T10:35:54.446Z,66.79
2022-12-15T10:38:32.669Z,66.99
2022-12-15T10:41:02.737Z,67.42
2022-12-15T10:43:34.584Z,67.29
2022-12-15T10:46:05.513Z,67.22
2022-12-15T10:48:33.023Z,67.39
2022-12-15T10:51:18.235Z,67.11
2022-12-15T10:53:50.462Z,67.70
2022-12-15T10:56:24.829Z,67.70
2022-12-15T10:59:00.082Z,67.40
2022-12-15T11:01:29.763Z,66.82
2022-12-15T11:03:57.695Z,67.18
2022-12-15T11:06:29.231Z,66.82
2022-12-15T11:08:58.547Z,66.88
2022-12-15T11:11:47.051Z,66.82
2022-12-15T11:14:19.499Z,66.92
2022-12-15T11:16:50.985Z,67.02
2022-12-15T11:19:31.192Z,66.89
2022-12-15T11:22:04.542Z,67.55
2022-12-15T11:24:37.420Z,67.21
2022-12-15T11:27:07.545Z,67.35
2022-12-15T11:29:50.137Z,66.34
2022-12-15T11:32:22.984Z,66.55
2022-12-15T11:34:50.823Z,66.57
2022-12-15T11:37:37.860Z,65.84
2022-12-15T11:40:24.749Z,66.56
2022-12-15T11:43:04.683Z,66.15
2022-12-15T11:45:42.615Z,66.67
2022-12-15T11:48:14.849Z,67.14
2022-12-15T11:50:54.198Z,67.85
2022-12-15T11:53:46.146Z,67.75
2022-12-15T11:56:23.904Z,67.63
2022-12-15T11:59:00.840Z,67.38
2022-12-15T12:01:55.418Z,67.41
2022-12-15T12:04:28.055Z,66.83
2022-12-15T12:07:09.488Z,66.67
2022-12-15T12:09:48.692Z,66.57
2022-12-15T12:12:26.954Z,66.97
2022-12-15T12:15:08.071Z,66.81
2022-12-15T12:17:42.182Z,66.84
2022-12-15T12:20:18.580Z,66.76
2022-12-15T12:22:54.473Z,66.88
2022-12-15T12:25:26.875Z,66.93
2022-12-15T12:27:57.044Z,66.97
2022-12-15T12:30:31.145Z,67.71
2022-12-15T12:33:07.403Z,67.68
2022-12-15T12:35:43.004Z,67.74
2022-12-15T12:38:12.031Z,67.76
2022-12-15T12:40:52.343Z,68.11
2022-12-15T12:43:31.684Z,67.43
2022-12-15T12:46:04.970Z,67.63
2022-12-15T12:48:37.591Z,67.19
2022-12-15T12:51:18.668Z,67.19
2022-12-15T12:53:46.183Z,67.30
2022-12-15T12:56:40.014Z,67.96
2022-12-15T12:59:37.358Z,67.10
2022-12-15T13:02:42.677Z,66.93
2022-12-15T13:05:26.021Z,66.92
2022-12-15T13:07:57.210Z,67.24
2022-12-15T13:10:26.674Z,66.88
2022-12-15T13:12:56.890Z,66.63
2022-12-15T13:15:36.014Z,66.13
2022-12-15T13:18:09.115Z,65.71
2022-12-15T13:20:37.978Z,65.75
2022-12-15T13:23:43.763Z,65.25
2022-12-15T13:26:14.785Z,65.89
2022-12-15T13:28:48.937Z,65.45
2022-12-15T13:31:27.465Z,65.69
2022-12-15T13:34:12.955Z,65.58
2022-12-15T13:36:54.452Z,65.05
2022-12-15T13:39:58.093Z,65.65
2022-12-15T13:42:44.513Z,65.92
2022-12-15T13:45:48.915Z,65.70
2022-12-15T13:48:35.833Z,65.50
2022-12-15T13:51:11.411Z,66.08
2022-12-15T13:53:44.279Z,65.94
2022-12-15T13:56:38.652Z,66.20
2022-12-15T13:59:15.115Z,66.16
2022-12-15T14:01:52.009Z,65.71
2022-12-15T14:04:21.327Z,65.47
2022-12-15T14:06:51.004Z,65.60
2022-12-15T14:09:23.291Z,65.92
2022-12-15T14:11:53.526Z,65.84
2022-12-15T14:14:25.613Z,65.43
2022-12-15T14:17:01.140Z,65.82
2022-12-15T14:19:39.503Z,66.37
2022-12-15T14:22:27.068Z,66.41
2022-12-15T14:25:01.306Z,66.53
2022-12-15T14:27:30.636Z,66.68
2022-12-15T14:30:26.569Z,67.26
2022-12-15T14:33:07.171Z,66.95
2022-12-15T14:35:39.845Z,66.85
2022-12-15T14:38:13.437Z,67.11
2022-12-15T14:40:42.536Z,66.83
2022-12-15T14:43:22.699Z,67.33
2022-12-15T14:45:55.320Z,67.66
2022-12-15T14:51:18.782Z,67.51
2022-12-15T14:53:50.071Z,67.28
2022-12-15T14:56:30.412Z,67.85
2022-12-15T14:59:03.680Z,67.54
2022-12-15T15:01:34.517Z,67.99
2022-12-15T15:03:14.538Z,67.22
2022-12-15T15:04:05.386Z,67.32
2022-12-15T15:06:36.744Z,67.21
2022-12-15T15:09:16.667Z,67.79
2022-12-15T15:11:44.653Z,67.33
2022-12-15T15:14:15.916Z,67.78
2022-12-15T15:16:44.107Z,67.51
2022-12-15T15:19:20.567Z,67.90
2022-12-15T15:21:48.777Z,67.10
2022-12-15T15:24:25.538Z,67.26
2022-12-15T15:26:53.671Z,66.96
2022-12-15T15:29:39.433Z,66.82
2022-12-15T15:32:15.097Z,66.96
2022-12-15T15:34:44.873Z,66.96
2022-12-15T15:37:18.779Z,66.96
2022-12-15T15:39:48.376Z,67.59
2022-12-15T15:42:16.236Z,67.75
2022-12-15T15:44:43.873Z,68.02
2022-12-15T15:47:21.046Z,67.41
2022-12-15T15:49:50.908Z,67.76
2022-12-15T15:52:18.574Z,67.77
2022-12-15T15:54:46.748Z,67.57
2022-12-15T15:57:16.065Z,67.31
2022-12-15T15:59:44.197Z,67.11
2022-12-15T16:02:13.298Z,67.17
2022-12-15T16:04:42.219Z,67.23
2022-12-15T16:07:21.443Z,67.06
2022-12-15T16:09:49.478Z,67.05
2022-12-15T16:12:27.695Z,67.19
2022-12-15T16:14:55.610Z,66.88
2022-12-15T16:17:23.934Z,66.84
2022-12-15T16:19:51.488Z,67.24
2022-12-15T16:22:22.371Z,67.13
2022-12-15T16:24:49.914Z,67.36
2022-12-15T16:27:17.521Z,67.18
2022-12-15T16:29:45.163Z,67.22
2022-12-15T16:32:13.306Z,66.95
2022-12-15T16:34:41.920Z,67.30
2022-12-15T16:37:25.916Z,67.12
2022-12-15T16:39:53.580Z,67.24
2022-12-15T16:42:21.095Z,67.48
2022-12-15T16:44:48.608Z,67.67
2022-12-15T16:47:16.319Z,67.34
2022-12-15T16:49:43.897Z,67.41
2022-12-15T16:52:19.343Z,67.06
2022-12-15T16:54:50.117Z,67.37
2022-12-15T16:57:18.403Z,67.33
2022-12-15T16:59:46.049Z,67.22
2022-12-15T17:02:29.206Z,67.26
2022-12-15T17:04:57.341Z,67.18
2022-12-15T17:07:27.524Z,67.66
2022-12-15T17:09:57.323Z,67.95
2022-12-15T17:12:24.890Z,67.93
2022-12-15T17:14:52.408Z,67.32
2022-12-15T17:17:21.054Z,67.54
2022-12-15T17:20:19.805Z,68.13
2022-12-15T17:22:37.606Z,68.13
2022-12-15T17:25:07.172Z,68.27
2022-12-15T17:27:34.755Z,67.89
2022-12-15T17:30:02.781Z,67.21
2022-12-15T17:32:30.503Z,67.50
2022-12-15T17:34:58.149Z,67.29
2022-12-15T17:37:28.070Z,67.43
2022-12-15T17:39:58.005Z,67.43
2022-12-15T17:42:27.152Z,66.71
2022-12-15T17:44:54.786Z,66.91
2022-12-15T17:47:24.165Z,66.70
2022-12-15T17:49:51.676Z,66.61
2022-12-15T17:52:26.773Z,66.50
2022-12-15T17:54:55.349Z,66.22
2022-12-15T17:57:22.970Z,66.84
2022-12-15T17:59:51.862Z,66.48
2022-12-15T18:02:20.117Z,66.82
2022-12-15T18:04:47.737Z,66.44
2022-12-15T18:07:19.143Z,66.19
2022-12-15T18:09:47.627Z,66.65
2022-12-15T18:12:23.424Z,66.81
2022-12-15T18:14:53.063Z,66.92
2022-12-15T18:17:21.389Z,66.72
2022-12-15T18:19:49.027Z,66.82
2022-12-15T18:22:22.058Z,66.59
2022-12-15T18:24:50.600Z,66.94
2022-12-15T18:27:21.970Z,66.63
2022-12-15T18:29:49.479Z,66.69
2022-12-15T18:32:18.935Z,66.46
2022-12-15T18:34:46.852Z,66.50
2022-12-15T18:37:17.277Z,66.42
2022-12-15T18:39:45.108Z,66.54
2022-12-15T18:42:15.475Z,66.68
2022-12-15T18:44:46.855Z,66.66
2022-12-15T18:47:18.521Z,66.96
2022-12-15T18:49:46.275Z,67.24
2022-12-15T18:52:17.664Z,67.06
2022-12-15T18:54:45.627Z,66.74
2022-12-15T18:57:26.395Z,67.15
2022-12-15T18:59:54.619Z,67.03
2022-12-15T19:02:23.656Z,67.21
2022-12-15T19:04:51.289Z,67.70
2022-12-15T19:07:18.830Z,67.79
2022-12-15T19:09:46.341Z,67.27
2022-12-15T19:12:21.547Z,67.20
2022-12-15T19:14:50.879Z,67.05
2022-12-15T19:17:52.323Z,66.86
2022-12-15T19:20:39.060Z,66.23
2022-12-15T19:23:07.663Z,66.59
2022-12-15T19:25:36.207Z,66.93
2022-12-15T19:28:03.870Z,66.73
2022-12-15T19:30:38.579Z,66.79
2022-12-15T19:33:09.383Z,66.43
2022-12-15T19:35:39.372Z,66.71
2022-12-15T19:38:08.153Z,66.64
2022-12-15T19:40:37.374Z,66.56
2022-12-15T19:43:05.187Z,66.67
2022-12-15T19:45:33.849Z,67.21
2022-12-15T19:48:01.416Z,67.26
2022-12-15T19:50:31.137Z,67.35
2022-12-15T19:53:01.925Z,67.16
2022-12-15T19:55:32.582Z,67.19
2022-12-15T19:58:00.826Z,67.56
2022-12-15T20:00:28.398Z,67.88
2022-12-15T20:02:56.644Z,68.42
2022-12-15T20:05:26.041Z,68.50
2022-12-15T20:07:54.812Z,68.43
2022-12-15T20:10:31.896Z,67.70
2022-12-15T20:13:00.500Z,67.02
2022-12-15T20:15:28.159Z,66.43
2022-12-15T20:17:57.424Z,66.97
2022-12-15T20:20:27.263Z,67.21
2022-12-15T20:22:57.650Z,67.02
2022-12-15T20:25:29.528Z,66.92
2022-12-15T20:28:00.227Z,67.25
2022-12-15T20:30:29.859Z,67.10
2022-12-15T20:32:57.503Z,67.19
2022-12-15T20:35:41.402Z,66.84
2022-12-15T20:38:37.668Z,67.72
2022-12-15T20:41:24.837Z,67.37
2022-12-15T20:43:59.768Z,67.38
2022-12-15T20:46:40.463Z,67.32
2022-12-15T20:49:16.221Z,67.64
2022-12-15T20:51:44.882Z,67.78
2022-12-15T20:54:18.906Z,67.89
2022-12-15T20:56:48.708Z,67.89
2022-12-15T20:59:17.166Z,67.39
2022-12-15T21:01:46.368Z,67.89
2022-12-15T21:04:24.900Z,67.83
2022-12-15T21:06:54.888Z,68.23
2022-12-15T21:09:26.785Z,68.88
2022-12-15T21:11:55.950Z,68.50
2022-12-15T21:14:25.273Z,68.41
2022-12-15T21:16:52.816Z,68.31
2022-12-15T21:19:22.052Z,68.26
2022-12-15T21:21:52.999Z,67.68
2022-12-15T21:24:25.864Z,67.84
2022-12-15T21:26:55.221Z,67.70
2022-12-15T21:29:24.852Z,67.80
2022-12-15T21:31:52.604Z,68.07
2022-12-15T21:34:20.235Z,67.98
2022-12-15T21:36:52.569Z,68.26
2022-12-15T21:39:25.756Z,68.15
2022-12-15T21:41:55.044Z,68.48
2022-12-15T21:44:22.846Z,68.41
2022-12-15T21:46:50.447Z,68.72
2022-12-15T21:49:18.700Z,68.77
2022-12-15T21:51:49.494Z,68.98
2022-12-15T21:54:20.408Z,69.12
2022-12-15T21:56:49.420Z,69.23
2022-12-15T21:59:21.091Z,69.19
2022-12-15T22:01:49.392Z,69.45
2022-12-15T22:04:20.195Z,69.27
2022-12-15T22:06:50.890Z,69.53
2022-12-15T22:09:19.404Z,69.50
2022-12-15T22:11:50.759Z,69.30
2022-12-15T22:14:26.386Z,69.06
2022-12-15T22:16:54.239Z,69.41
2022-12-15T22:19:22.767Z,69.40
2022-12-15T22:21:50.509Z,69.40
2022-12-15T22:24:19.793Z,69.06
2022-12-15T22:26:47.836Z,69.47
2022-12-15T22:29:18.506Z,69.35
2022-12-15T22:31:48.255Z,69.39
2022-12-15T22:34:17.991Z,69.46
2022-12-15T22:36:45.762Z,69.40
2022-12-15T22:39:14.742Z,69.12
2022-12-15T22:41:44.652Z,69.13
2022-12-15T22:44:17.772Z,69.27
2022-12-15T22:46:47.515Z,69.16
2022-12-15T22:49:18.524Z,68.98
2022-12-15T22:51:47.071Z,68.92
2022-12-15T22:54:21.577Z,68.52
2022-12-15T22:56:52.951Z,68.71
2022-12-15T22:59:28.069Z,68.17
2022-12-15T23:01:57.155Z,68.42
2022-12-15T23:04:25.276Z,68.02
2022-12-15T23:06:52.915Z,68.31
2022-12-15T23:09:22.680Z,67.89
2022-12-15T23:11:49.226Z,67.80
2022-12-15T23:14:18.861Z,67.76
2022-12-15T23:16:46.446Z,67.71
2022-12-15T23:19:23.850Z,67.89
2022-12-15T23:21:52.107Z,67.76
2022-12-15T23:24:19.870Z,67.69
2022-12-15T23:26:47.468Z,67.61
2022-12-15T23:29:15.154Z,67.99
2022-12-15T23:31:43.128Z,68.00
2022-12-15T23:34:11.399Z,68.16
2022-12-15T23:36:40.338Z,67.85
2022-12-15T23:39:07.892Z,67.65
2022-12-15T23:41:36.073Z,67.92
2022-12-15T23:44:03.654Z,68.04
2022-12-15T23:46:31.207Z,67.92
2022-12-15T23:49:00.139Z,67.57
2022-12-15T23:51:27.677Z,67.80
2022-12-15T23:53:56.556Z,67.88
2022-12-15T23:56:25.352Z,67.72
2022-12-15T23:58:56.183Z,67.72
